Forside
METAR-TAF:

METAR-TAF

Lufthavne :

Madison, Indiana, USA

Breddekreds: 38-45-36N, længdekreds: 085-27-53W, højde: 250 m

Aktuelle vejr

Denne rapport blev lavet for 29 minutter siden, kl. 20:55 UTC
Vind 6 kt fra sydvest
Temperatur 6°C
Fugtighed 65%
Tryk 1014 hPa
Sigt: 16.1 km
skyfri

METAR: KIMS 262055Z AUTO 23006KT 10SM CLR 06/00 A2995 RMK AO1

Tid: 16:24 (21:24 UTC)


TAF: fraværende

Vejrobservationer og prognoser fra mere end 4000 lufthavne (METAR og TAF).

De gule og røde prikker repræsenterer de meteorologiske stationer.

Flyt musen over at se navnet på stationen.

Så klik over at se vejr observationer og prognoser.

At skifte det kort: Klik på de grønne knapper med et sort kors for at zoome ind; på den grønne knap med en bindestreg for at zoome ud; eller på de grønne pile for tilstødende kort.


METAR-TAF: